createdAt,value
2023-01-22T00:04:24.098Z,86.79
2023-01-22T00:09:31.137Z,86.58
2023-01-22T00:14:36.965Z,87.36
2023-01-22T00:19:38.925Z,87.52
2023-01-22T00:24:40.658Z,87.40
2023-01-22T00:29:42.461Z,87.41
2023-01-22T00:34:50.611Z,87.40
2023-01-22T00:39:53.176Z,87.64
2023-01-22T00:44:55.956Z,87.90
2023-01-22T00:49:57.769Z,88.32
2023-01-22T00:54:59.492Z,88.00
2023-01-22T01:00:01.282Z,87.87
2023-01-22T01:05:04.987Z,88.03
2023-01-22T01:10:07.481Z,88.22
2023-01-22T01:15:11.296Z,87.98
2023-01-22T01:20:14.065Z,87.47
2023-01-22T01:25:16.056Z,87.08
2023-01-22T01:30:18.125Z,87.30
2023-01-22T01:35:22.723Z,87.24
2023-01-22T01:40:25.955Z,87.05
2023-01-22T01:45:33.035Z,86.68
2023-01-22T01:50:35.427Z,86.36
2023-01-22T01:55:39.739Z,86.53
2023-01-22T02:00:43.785Z,86.40
2023-01-22T02:05:45.584Z,86.43
2023-01-22T02:10:47.429Z,86.27
2023-01-22T02:15:49.271Z,86.17
2023-01-22T02:20:56.878Z,86.07
2023-01-22T02:26:00.420Z,86.15
2023-01-22T02:31:02.183Z,86.23
2023-01-22T02:36:05.157Z,86.27
2023-01-22T02:41:07.869Z,86.17
2023-01-22T02:46:10.176Z,86.37
2023-01-22T02:51:12.403Z,86.35
2023-01-22T02:56:15.003Z,86.49
2023-01-22T03:01:20.801Z,86.24
2023-01-22T03:06:26.711Z,86.40
2023-01-22T03:11:30.588Z,86.42
2023-01-22T03:16:59.130Z,86.45
2023-01-22T03:22:01.584Z,86.39
2023-01-22T03:27:04.315Z,86.58
2023-01-22T03:32:07.161Z,86.23
2023-01-22T03:37:12.904Z,86.27
2023-01-22T03:42:15.955Z,86.47
2023-01-22T03:47:18.056Z,86.56
2023-01-22T03:52:20.006Z,86.40
2023-01-22T03:57:21.975Z,86.45
2023-01-22T04:02:23.797Z,86.71
2023-01-22T04:07:35.817Z,86.66
2023-01-22T04:12:37.653Z,86.24
2023-01-22T04:17:39.595Z,86.38
2023-01-22T04:23:04.841Z,86.15
2023-01-22T04:28:08.700Z,85.95
2023-01-22T04:33:11.969Z,85.95
2023-01-22T04:38:33.884Z,85.80
2023-01-22T04:43:35.632Z,85.50
2023-01-22T04:48:38.056Z,85.36
2023-01-22T04:53:40.107Z,84.92
2023-01-22T04:58:42.819Z,85.18
2023-01-22T05:03:44.817Z,84.98
2023-01-22T05:08:46.947Z,84.92
2023-01-22T05:13:49.809Z,84.90
2023-01-22T05:18:52.552Z,84.71
2023-01-22T05:23:54.651Z,85.04
2023-01-22T05:28:57.954Z,84.81
2023-01-22T05:34:23.510Z,84.82
2023-01-22T05:39:26.130Z,84.54
2023-01-22T05:44:29.890Z,84.55
2023-01-22T05:49:32.347Z,84.54
2023-01-22T05:54:34.544Z,84.69
2023-01-22T05:59:37.400Z,84.63
2023-01-22T06:04:41.059Z,84.87
2023-01-22T06:09:52.362Z,84.42
2023-01-22T06:14:54.439Z,84.15
2023-01-22T06:19:56.439Z,84.25
2023-01-22T06:24:58.177Z,84.31
2023-01-22T06:30:04.415Z,84.27
2023-01-22T06:35:06.709Z,84.19
2023-01-22T06:40:09.848Z,84.33
2023-01-22T06:45:16.892Z,84.04
2023-01-22T06:50:23.206Z,84.18
2023-01-22T06:55:25.041Z,83.96
2023-01-22T07:00:26.991Z,84.20
2023-01-22T07:05:28.647Z,83.96
2023-01-22T07:10:30.450Z,83.90
2023-01-22T07:15:32.393Z,84.15
2023-01-22T07:20:34.058Z,84.24
2023-01-22T07:25:35.743Z,84.32
2023-01-22T07:30:37.569Z,84.23
2023-01-22T07:35:39.887Z,84.12
2023-01-22T07:40:41.589Z,84.12
2023-01-22T07:45:43.732Z,83.92
2023-01-22T07:50:45.404Z,83.88
2023-01-22T07:55:47.125Z,83.67
2023-01-22T08:00:49.675Z,83.75
2023-01-22T08:05:51.413Z,83.40
2023-01-22T08:10:53.281Z,83.20
2023-01-22T08:15:57.842Z,83.32
2023-01-22T08:21:01.195Z,83.02
2023-01-22T08:26:04.325Z,82.58
2023-01-22T08:31:09.394Z,82.22
2023-01-22T08:36:13.072Z,82.33
2023-01-22T08:41:15.694Z,82.31
2023-01-22T08:46:17.480Z,82.22
2023-01-22T08:51:19.887Z,82.08
2023-01-22T08:56:21.722Z,81.76
2023-01-22T09:01:23.513Z,81.82
2023-01-22T09:06:26.952Z,81.81
2023-01-22T09:11:29.580Z,81.59
2023-01-22T09:16:33.133Z,81.18
2023-01-22T09:21:37.336Z,81.10
2023-01-22T09:26:39.149Z,81.20
2023-01-22T09:31:40.960Z,81.70
2023-01-22T09:36:43.217Z,81.23
2023-01-22T09:41:54.856Z,81.26
2023-01-22T09:47:05.182Z,81.25
2023-01-22T09:52:06.973Z,81.42
2023-01-22T09:57:29.979Z,81.59
2023-01-22T10:02:44.195Z,81.39
2023-01-22T10:07:57.496Z,81.06
2023-01-22T10:13:37.160Z,81.21
2023-01-22T10:19:03.885Z,81.78
2023-01-22T10:24:08.031Z,81.73
2023-01-22T10:29:15.265Z,81.77
2023-01-22T10:34:32.518Z,81.76
2023-01-22T10:39:46.451Z,81.66
2023-01-22T10:44:48.752Z,81.85
2023-01-22T10:50:04.608Z,81.64
2023-01-22T10:55:16.778Z,81.60
2023-01-22T11:00:33.033Z,81.80
2023-01-22T11:05:46.046Z,81.84
2023-01-22T11:11:00.039Z,81.94
2023-01-22T11:16:05.791Z,81.95
2023-01-22T11:21:22.998Z,81.30
2023-01-22T11:26:40.683Z,81.59
2023-01-22T11:31:55.063Z,82.25
2023-01-22T11:37:17.738Z,81.79
2023-01-22T11:42:37.372Z,81.34
2023-01-22T11:47:57.487Z,80.85
2023-01-22T11:53:26.017Z,80.99
2023-01-22T11:58:48.050Z,81.45
2023-01-22T12:04:05.633Z,81.54
2023-01-22T12:09:38.070Z,81.78
2023-01-22T12:14:50.035Z,82.40
2023-01-22T12:20:01.355Z,82.44
2023-01-22T12:25:28.119Z,82.53
2023-01-22T12:30:50.696Z,82.94
2023-01-22T12:35:57.949Z,82.97
2023-01-22T12:41:24.295Z,83.09
2023-01-22T12:46:38.298Z,83.03
2023-01-22T12:51:49.089Z,83.42
2023-01-22T12:56:53.581Z,83.44
2023-01-22T13:02:01.198Z,83.36
2023-01-22T13:07:21.718Z,83.63
2023-01-22T13:12:26.671Z,84.47
2023-01-22T13:17:30.675Z,84.35
2023-01-22T13:22:33.926Z,84.19
2023-01-22T13:27:36.963Z,84.08
2023-01-22T13:32:38.720Z,84.35
2023-01-22T13:37:44.061Z,84.70
2023-01-22T13:42:46.956Z,84.53
2023-01-22T13:47:50.875Z,84.79
2023-01-22T13:52:52.979Z,85.09
2023-01-22T13:57:57.561Z,84.90
2023-01-22T14:03:00.751Z,85.37
2023-01-22T14:08:10.992Z,84.90
2023-01-22T14:13:13.758Z,85.22
2023-01-22T14:18:17.723Z,85.03
2023-01-22T14:23:19.432Z,85.24
2023-01-22T14:28:22.221Z,85.05
2023-01-22T14:33:30.459Z,85.55
2023-01-22T14:38:32.298Z,85.63
2023-01-22T14:43:35.800Z,85.91
2023-01-22T14:48:38.555Z,85.91
2023-01-22T14:53:40.361Z,86.05
2023-01-22T14:58:42.112Z,86.32
2023-01-22T15:03:44.138Z,86.79
2023-01-22T15:08:45.886Z,86.70
2023-01-22T15:13:49.234Z,86.61
2023-01-22T15:18:54.587Z,87.10
2023-01-22T15:23:56.551Z,87.17
2023-01-22T15:28:59.808Z,87.09
2023-01-22T15:34:03.300Z,87.33
2023-01-22T15:39:08.443Z,87.13
2023-01-22T15:44:12.782Z,87.37
2023-01-22T15:49:15.097Z,86.38
2023-01-22T15:54:16.864Z,86.48
2023-01-22T15:59:19.751Z,86.60
2023-01-22T16:04:24.142Z,86.92
2023-01-22T16:09:26.548Z,86.68
2023-01-22T16:14:29.264Z,86.46
2023-01-22T16:19:31.733Z,86.63
2023-01-22T16:24:33.753Z,86.25
2023-01-22T16:29:35.494Z,86.26
2023-01-22T16:34:37.430Z,86.42
2023-01-22T16:39:39.574Z,86.59
2023-01-22T16:44:41.369Z,86.62
2023-01-22T16:49:43.203Z,86.76
2023-01-22T16:54:45.227Z,86.58
2023-01-22T16:59:47.080Z,86.64
2023-01-22T17:04:48.789Z,86.73
2023-01-22T17:09:50.687Z,86.63
2023-01-22T17:14:53.001Z,86.99
2023-01-22T17:19:55.161Z,87.32
2023-01-22T17:24:57.142Z,87.15
2023-01-22T17:29:58.902Z,87.27
2023-01-22T17:35:01.718Z,87.70
2023-01-22T17:40:04.931Z,87.55
2023-01-22T17:45:08.039Z,87.25
2023-01-22T17:50:12.379Z,87.40
2023-01-22T17:55:14.666Z,87.49
2023-01-22T18:00:17.500Z,87.64
2023-01-22T18:05:19.575Z,87.86
2023-01-22T18:10:22.060Z,87.51
2023-01-22T18:15:26.480Z,87.68
2023-01-22T18:20:28.511Z,87.43
2023-01-22T18:25:33.481Z,88.02
2023-01-22T18:30:35.397Z,88.18
2023-01-22T18:35:38.252Z,88.26
2023-01-22T18:40:40.890Z,87.94
2023-01-22T18:45:43.181Z,88.06
2023-01-22T18:50:52.003Z,87.88
2023-01-22T18:56:00.958Z,87.72
2023-01-22T19:01:13.500Z,87.62
2023-01-22T19:06:18.209Z,87.64
2023-01-22T19:11:19.975Z,87.48
2023-01-22T19:16:24.471Z,87.32
2023-01-22T19:21:27.688Z,87.65
2023-01-22T19:26:31.893Z,87.66
2023-01-22T19:31:43.171Z,87.66
2023-01-22T19:36:44.939Z,87.90
2023-01-22T19:41:47.427Z,87.47
2023-01-22T19:46:49.574Z,87.49
2023-01-22T19:51:51.440Z,87.40
2023-01-22T19:56:53.997Z,87.46
2023-01-22T20:01:57.249Z,87.45
2023-01-22T20:07:07.363Z,87.38
2023-01-22T20:12:11.458Z,87.28
2023-01-22T20:17:13.929Z,87.25
2023-01-22T20:22:15.935Z,87.68
2023-01-22T20:27:17.912Z,87.89
2023-01-22T20:32:20.542Z,87.57
2023-01-22T20:37:22.438Z,87.84
2023-01-22T20:42:24.374Z,87.59
2023-01-22T20:47:26.671Z,87.55
2023-01-22T20:52:28.827Z,87.82
2023-01-22T20:57:31.509Z,87.99
2023-01-22T21:02:33.214Z,87.81
2023-01-22T21:07:34.917Z,87.85
2023-01-22T21:12:36.649Z,88.01
2023-01-22T21:17:38.378Z,87.22
2023-01-22T21:22:42.071Z,87.42
2023-01-22T21:27:43.896Z,87.85
2023-01-22T21:32:50.622Z,87.55
2023-01-22T21:37:52.318Z,86.78
2023-01-22T21:43:12.375Z,87.32
2023-01-22T21:48:14.251Z,87.02
2023-01-22T21:53:16.367Z,86.76
2023-01-22T21:58:18.139Z,86.85
2023-01-22T22:03:20.378Z,86.81
2023-01-22T22:08:22.139Z,86.75
2023-01-22T22:13:25.743Z,86.75
2023-01-22T22:18:27.952Z,87.02
2023-01-22T22:23:30.682Z,86.88
2023-01-22T22:28:33.489Z,86.55
2023-01-22T22:33:35.262Z,86.90
2023-01-22T22:38:37.126Z,86.36
2023-01-22T22:43:44.127Z,86.68
2023-01-22T22:48:52.117Z,86.74
2023-01-22T22:53:57.028Z,86.78
2023-01-22T22:59:00.951Z,86.62
2023-01-22T23:04:03.016Z,86.23
2023-01-22T23:09:06.693Z,85.92
2023-01-22T23:14:09.185Z,86.08
2023-01-22T23:19:31.205Z,86.24
2023-01-22T23:24:32.981Z,86.09
2023-01-22T23:29:34.710Z,86.20
2023-01-22T23:34:37.583Z,86.20
2023-01-22T23:39:39.309Z,86.52
2023-01-22T23:44:41.088Z,86.38
2023-01-22T23:49:42.893Z,86.58
2023-01-22T23:54:44.768Z,86.47
2023-01-22T23:59:49.954Z,86.46
